BIENTÔT MET'MAP
version 2.0 !

Prévue avant fin octobre,
la nouvelle version sera
plus belle, plus complète
et hébergée sur un serveur
3 fois plus puissant...
et toujours gratuite !


Pas compatible ?
Essayez la version Mobile !

SE CONNECTER : | S'inscrire | Disclaimer | Découvrir Orbifly |
Code OACI :

TAF - EDJA Memmingen - 28 Feb 2020 07:17 UTC
Data Sources :     NOAA   


- Altitude de l'aérodrome : 2077 ft
- Code IATA : FMM
- Pas de NOTAMs connus.


EDJA - Memmingen

Dernier METAR connu : 2015/08/11 07:50 EDJA 110750Z VRB03KT 7000 BKN016 22/17 Q1018
TAF TAF EDJA
Valide du 28 à 06h jusqu'au 28 à 15h UTC


280500Z 2806/2815 28015G25KT 9999 BKN045
BECMG 2806/2808 26012KT
BECMG 2812/2814 22006KT

Source NOAA


MET'MAP, la Météo Aéronautique d'un coup d'oeil ! - Copyright ORBIFLY Décembre 2007

Développement & Programmation : Alexandra Zaïnal
Co-Développement : Marc-Olivier Méhu
Soutien technique & logistique : Manuel Goepfert
Conception & Financement : Baudouin d'Aumeries